sensor_id;sensor_type;location;lat;lon;timestamp;temperature;humidity
23532;DHT22;11943;52.270;20.978;2023-02-08T00:00:33;1.00;99.90
23532;DHT22;11943;52.270;20.978;2023-02-08T00:02:58;1.00;99.90
23532;DHT22;11943;52.270;20.978;2023-02-08T00:05:24;1.00;99.90
23532;DHT22;11943;52.270;20.978;2023-02-08T00:07:49;1.00;99.90
23532;DHT22;11943;52.270;20.978;2023-02-08T00:10:15;0.90;99.90
23532;DHT22;11943;52.270;20.978;2023-02-08T00:12:40;0.90;99.90
23532;DHT22;11943;52.270;20.978;2023-02-08T00:15:06;0.80;99.90
23532;DHT22;11943;52.270;20.978;2023-02-08T00:17:32;0.90;99.90
23532;DHT22;11943;52.270;20.978;2023-02-08T00:19:57;0.80;99.90
23532;DHT22;11943;52.270;20.978;2023-02-08T00:22:23;0.80;99.90
23532;DHT22;11943;52.270;20.978;2023-02-08T00:24:49;0.80;99.90
23532;DHT22;11943;52.270;20.978;2023-02-08T00:27:15;0.80;99.90
23532;DHT22;11943;52.270;20.978;2023-02-08T00:29:40;0.80;99.90
23532;DHT22;11943;52.270;20.978;2023-02-08T00:32:07;0.80;99.90
23532;DHT22;11943;52.270;20.978;2023-02-08T00:34:32;0.80;99.90
23532;DHT22;11943;52.270;20.978;2023-02-08T00:36:59;0.70;99.90
23532;DHT22;11943;52.270;20.978;2023-02-08T00:39:25;0.80;99.90
23532;DHT22;11943;52.270;20.978;2023-02-08T00:41:50;0.80;99.90
23532;DHT22;11943;52.270;20.978;2023-02-08T00:44:16;0.80;99.90
23532;DHT22;11943;52.270;20.978;2023-02-08T00:46:41;0.70;99.90
23532;DHT22;11943;52.270;20.978;2023-02-08T00:49:07;0.70;99.90
23532;DHT22;11943;52.270;20.978;2023-02-08T00:51:32;0.70;99.90
23532;DHT22;11943;52.270;20.978;2023-02-08T00:53:58;0.70;99.90
23532;DHT22;11943;52.270;20.978;2023-02-08T00:56:23;0.70;99.90
23532;DHT22;11943;52.270;20.978;2023-02-08T00:58:49;0.80;99.90
23532;DHT22;11943;52.270;20.978;2023-02-08T01:01:14;0.80;99.90
23532;DHT22;11943;52.270;20.978;2023-02-08T01:03:40;0.80;99.90
23532;DHT22;11943;52.270;20.978;2023-02-08T01:06:07;0.80;99.90
23532;DHT22;11943;52.270;20.978;2023-02-08T01:08:33;0.80;99.90
23532;DHT22;11943;52.270;20.978;2023-02-08T01:11:05;0.80;99.90
23532;DHT22;11943;52.270;20.978;2023-02-08T01:13:31;0.80;99.90
23532;DHT22;11943;52.270;20.978;2023-02-08T01:16:04;0.80;99.90
23532;DHT22;11943;52.270;20.978;2023-02-08T01:18:29;0.80;99.90
23532;DHT22;11943;52.270;20.978;2023-02-08T01:20:55;0.90;99.90
23532;DHT22;11943;52.270;20.978;2023-02-08T01:23:20;0.80;99.90
23532;DHT22;11943;52.270;20.978;2023-02-08T01:25:46;0.70;99.90
23532;DHT22;11943;52.270;20.978;2023-02-08T01:28:11;0.80;99.90
23532;DHT22;11943;52.270;20.978;2023-02-08T01:30:37;0.80;99.90
23532;DHT22;11943;52.270;20.978;2023-02-08T01:33:03;0.80;99.90
23532;DHT22;11943;52.270;20.978;2023-02-08T01:35:28;0.80;99.90
23532;DHT22;11943;52.270;20.978;2023-02-08T01:37:54;0.80;99.90
23532;DHT22;11943;52.270;20.978;2023-02-08T01:40:19;0.80;99.90
23532;DHT22;11943;52.270;20.978;2023-02-08T01:42:45;0.70;99.90
23532;DHT22;11943;52.270;20.978;2023-02-08T01:47:48;0.80;99.90
23532;DHT22;11943;52.270;20.978;2023-02-08T01:50:14;0.80;99.90
23532;DHT22;11943;52.270;20.978;2023-02-08T01:52:42;0.80;99.90
23532;DHT22;11943;52.270;20.978;2023-02-08T01:55:14;0.80;99.90
23532;DHT22;11943;52.270;20.978;2023-02-08T01:57:40;0.80;99.90
23532;DHT22;11943;52.270;20.978;2023-02-08T02:00:07;0.80;99.90
23532;DHT22;11943;52.270;20.978;2023-02-08T02:02:34;0.80;99.90
23532;DHT22;11943;52.270;20.978;2023-02-08T02:05:00;0.80;99.90
23532;DHT22;11943;52.270;20.978;2023-02-08T02:07:27;0.80;99.90
23532;DHT22;11943;52.270;20.978;2023-02-08T02:12:38;0.70;99.90
23532;DHT22;11943;52.270;20.978;2023-02-08T02:15:05;0.70;99.90
23532;DHT22;11943;52.270;20.978;2023-02-08T02:17:31;0.80;99.90
23532;DHT22;11943;52.270;20.978;2023-02-08T02:25:09;0.70;99.90
23532;DHT22;11943;52.270;20.978;2023-02-08T02:33:01;0.80;99.90
23532;DHT22;11943;52.270;20.978;2023-02-08T02:40:31;0.80;99.90
23532;DHT22;11943;52.270;20.978;2023-02-08T02:48:55;0.70;99.90
23532;DHT22;11943;52.270;20.978;2023-02-08T02:54:12;0.70;99.90
23532;DHT22;11943;52.270;20.978;2023-02-08T02:56:49;0.70;99.90
23532;DHT22;11943;52.270;20.978;2023-02-08T02:59:16;0.60;99.90
23532;DHT22;11943;52.270;20.978;2023-02-08T03:01:42;0.70;99.90
23532;DHT22;11943;52.270;20.978;2023-02-08T03:04:45;0.70;99.90
23532;DHT22;11943;52.270;20.978;2023-02-08T03:20:10;0.50;99.90
23532;DHT22;11943;52.270;20.978;2023-02-08T03:22:34;0.60;99.90
23532;DHT22;11943;52.270;20.978;2023-02-08T03:25:26;0.70;99.90
23532;DHT22;11943;52.270;20.978;2023-02-08T03:30:52;0.60;99.90
23532;DHT22;11943;52.270;20.978;2023-02-08T03:33:33;0.70;99.90
23532;DHT22;11943;52.270;20.978;2023-02-08T03:36:07;0.60;99.90
23532;DHT22;11943;52.270;20.978;2023-02-08T03:38:39;0.70;99.90
23532;DHT22;11943;52.270;20.978;2023-02-08T03:41:08;0.60;99.90
23532;DHT22;11943;52.270;20.978;2023-02-08T03:43:36;0.60;99.90
23532;DHT22;11943;52.270;20.978;2023-02-08T03:48:28;0.60;99.90
23532;DHT22;11943;52.270;20.978;2023-02-08T03:50:54;0.60;99.90
23532;DHT22;11943;52.270;20.978;2023-02-08T03:53:21;0.60;99.90
23532;DHT22;11943;52.270;20.978;2023-02-08T03:55:49;0.60;99.90
23532;DHT22;11943;52.270;20.978;2023-02-08T03:58:18;0.60;99.90
23532;DHT22;11943;52.270;20.978;2023-02-08T04:00:48;0.50;99.90
23532;DHT22;11943;52.270;20.978;2023-02-08T04:03:17;0.60;99.90
23532;DHT22;11943;52.270;20.978;2023-02-08T04:05:44;0.60;99.90
23532;DHT22;11943;52.270;20.978;2023-02-08T04:08:10;0.60;99.90
23532;DHT22;11943;52.270;20.978;2023-02-08T04:10:35;0.70;99.90
23532;DHT22;11943;52.270;20.978;2023-02-08T04:13:01;0.70;99.90
23532;DHT22;11943;52.270;20.978;2023-02-08T04:15:26;0.50;99.90
23532;DHT22;11943;52.270;20.978;2023-02-08T04:17:52;0.60;99.90
23532;DHT22;11943;52.270;20.978;2023-02-08T04:20:18;0.70;99.90
23532;DHT22;11943;52.270;20.978;2023-02-08T04:22:44;0.60;99.90
23532;DHT22;11943;52.270;20.978;2023-02-08T04:25:09;0.50;99.90
23532;DHT22;11943;52.270;20.978;2023-02-08T04:27:35;0.60;99.90
23532;DHT22;11943;52.270;20.978;2023-02-08T04:30:00;0.60;99.90
23532;DHT22;11943;52.270;20.978;2023-02-08T04:32:26;0.60;99.90
23532;DHT22;11943;52.270;20.978;2023-02-08T04:34:51;0.60;99.90
23532;DHT22;11943;52.270;20.978;2023-02-08T04:37:17;0.60;99.90
23532;DHT22;11943;52.270;20.978;2023-02-08T04:39:42;0.70;99.90
23532;DHT22;11943;52.270;20.978;2023-02-08T04:42:08;0.70;99.90
23532;DHT22;11943;52.270;20.978;2023-02-08T04:44:33;0.70;99.90
23532;DHT22;11943;52.270;20.978;2023-02-08T04:46:59;0.70;99.90
23532;DHT22;11943;52.270;20.978;2023-02-08T04:49:25;0.60;99.90
23532;DHT22;11943;52.270;20.978;2023-02-08T04:51:50;0.70;99.90
23532;DHT22;11943;52.270;20.978;2023-02-08T04:54:16;0.70;99.90
23532;DHT22;11943;52.270;20.978;2023-02-08T04:56:41;0.80;99.90
23532;DHT22;11943;52.270;20.978;2023-02-08T04:59:07;0.80;99.90
23532;DHT22;11943;52.270;20.978;2023-02-08T05:01:32;0.80;99.90
23532;DHT22;11943;52.270;20.978;2023-02-08T05:03:58;0.80;99.90
23532;DHT22;11943;52.270;20.978;2023-02-08T05:06:23;0.80;99.90
23532;DHT22;11943;52.270;20.978;2023-02-08T05:08:49;0.80;99.90
23532;DHT22;11943;52.270;20.978;2023-02-08T05:11:21;0.80;99.90
23532;DHT22;11943;52.270;20.978;2023-02-08T05:13:47;0.80;99.90
23532;DHT22;11943;52.270;20.978;2023-02-08T05:16:13;0.80;99.90
23532;DHT22;11943;52.270;20.978;2023-02-08T05:18:38;0.70;99.90
23532;DHT22;11943;52.270;20.978;2023-02-08T05:21:04;0.70;99.90
23532;DHT22;11943;52.270;20.978;2023-02-08T05:23:29;0.70;99.90
23532;DHT22;11943;52.270;20.978;2023-02-08T05:25:56;0.70;99.90
23532;DHT22;11943;52.270;20.978;2023-02-08T05:28:22;0.70;99.90
23532;DHT22;11943;52.270;20.978;2023-02-08T05:30:47;0.70;99.90
23532;DHT22;11943;52.270;20.978;2023-02-08T05:33:13;0.70;99.90
23532;DHT22;11943;52.270;20.978;2023-02-08T05:35:38;0.60;99.90
23532;DHT22;11943;52.270;20.978;2023-02-08T05:38:04;0.60;99.90
23532;DHT22;11943;52.270;20.978;2023-02-08T05:40:29;0.70;99.90
23532;DHT22;11943;52.270;20.978;2023-02-08T05:42:55;0.70;99.90
23532;DHT22;11943;52.270;20.978;2023-02-08T05:45:20;0.70;99.90
23532;DHT22;11943;52.270;20.978;2023-02-08T05:47:46;0.70;99.90
23532;DHT22;11943;52.270;20.978;2023-02-08T05:50:12;0.70;99.90
23532;DHT22;11943;52.270;20.978;2023-02-08T05:52:37;0.70;99.90
23532;DHT22;11943;52.270;20.978;2023-02-08T05:55:03;0.80;99.90
23532;DHT22;11943;52.270;20.978;2023-02-08T05:57:29;0.70;99.90
23532;DHT22;11943;52.270;20.978;2023-02-08T05:59:54;0.80;99.90
23532;DHT22;11943;52.270;20.978;2023-02-08T06:02:20;0.70;99.90
23532;DHT22;11943;52.270;20.978;2023-02-08T06:04:45;0.80;99.90
23532;DHT22;11943;52.270;20.978;2023-02-08T06:07:11;0.80;99.90
23532;DHT22;11943;52.270;20.978;2023-02-08T06:09:36;0.80;99.90
23532;DHT22;11943;52.270;20.978;2023-02-08T06:12:02;0.80;99.90
23532;DHT22;11943;52.270;20.978;2023-02-08T06:14:27;0.90;99.90
23532;DHT22;11943;52.270;20.978;2023-02-08T06:16:53;0.80;99.90
23532;DHT22;11943;52.270;20.978;2023-02-08T06:19:18;0.80;99.90
23532;DHT22;11943;52.270;20.978;2023-02-08T06:21:44;0.90;99.90
23532;DHT22;11943;52.270;20.978;2023-02-08T06:24:09;0.90;99.90
23532;DHT22;11943;52.270;20.978;2023-02-08T06:26:35;0.90;99.90
23532;DHT22;11943;52.270;20.978;2023-02-08T06:29:01;1.00;99.90
23532;DHT22;11943;52.270;20.978;2023-02-08T06:31:26;1.00;99.90
23532;DHT22;11943;52.270;20.978;2023-02-08T06:33:52;1.00;99.90
23532;DHT22;11943;52.270;20.978;2023-02-08T06:36:17;1.00;99.90
23532;DHT22;11943;52.270;20.978;2023-02-08T06:38:43;1.10;99.90
23532;DHT22;11943;52.270;20.978;2023-02-08T06:41:08;1.10;99.90
23532;DHT22;11943;52.270;20.978;2023-02-08T06:43:34;1.10;99.90
23532;DHT22;11943;52.270;20.978;2023-02-08T06:45:59;1.10;99.90
23532;DHT22;11943;52.270;20.978;2023-02-08T06:48:29;1.10;99.90
23532;DHT22;11943;52.270;20.978;2023-02-08T06:50:55;1.20;99.90
23532;DHT22;11943;52.270;20.978;2023-02-08T06:53:20;1.10;99.90
23532;DHT22;11943;52.270;20.978;2023-02-08T06:55:49;1.20;99.90
23532;DHT22;11943;52.270;20.978;2023-02-08T06:58:15;1.20;99.90
23532;DHT22;11943;52.270;20.978;2023-02-08T07:00:41;1.20;99.90
23532;DHT22;11943;52.270;20.978;2023-02-08T07:03:07;1.00;99.90
23532;DHT22;11943;52.270;20.978;2023-02-08T07:05:36;1.10;99.90
23532;DHT22;11943;52.270;20.978;2023-02-08T07:08:02;1.20;99.90
23532;DHT22;11943;52.270;20.978;2023-02-08T07:10:28;1.00;99.90
23532;DHT22;11943;52.270;20.978;2023-02-08T07:12:53;1.00;99.90
23532;DHT22;11943;52.270;20.978;2023-02-08T07:15:19;1.00;99.90
23532;DHT22;11943;52.270;20.978;2023-02-08T07:17:44;1.00;99.90
23532;DHT22;11943;52.270;20.978;2023-02-08T07:20:12;1.00;99.90
23532;DHT22;11943;52.270;20.978;2023-02-08T07:22:38;1.10;99.90
23532;DHT22;11943;52.270;20.978;2023-02-08T07:25:04;1.10;99.90
23532;DHT22;11943;52.270;20.978;2023-02-08T07:27:29;1.10;99.90
23532;DHT22;11943;52.270;20.978;2023-02-08T07:29:55;1.00;99.90
23532;DHT22;11943;52.270;20.978;2023-02-08T07:32:20;1.10;99.90
23532;DHT22;11943;52.270;20.978;2023-02-08T07:34:46;1.10;99.90
23532;DHT22;11943;52.270;20.978;2023-02-08T07:37:11;1.10;99.90
23532;DHT22;11943;52.270;20.978;2023-02-08T07:39:37;1.10;99.90
23532;DHT22;11943;52.270;20.978;2023-02-08T07:42:02;1.20;99.90
23532;DHT22;11943;52.270;20.978;2023-02-08T07:44:29;1.20;99.90
23532;DHT22;11943;52.270;20.978;2023-02-08T07:46:55;1.20;99.90
23532;DHT22;11943;52.270;20.978;2023-02-08T07:49:20;1.10;99.90
23532;DHT22;11943;52.270;20.978;2023-02-08T07:51:46;1.10;99.90
23532;DHT22;11943;52.270;20.978;2023-02-08T07:54:11;1.20;99.90
23532;DHT22;11943;52.270;20.978;2023-02-08T07:56:37;1.20;99.90
23532;DHT22;11943;52.270;20.978;2023-02-08T07:59:02;1.20;99.90
23532;DHT22;11943;52.270;20.978;2023-02-08T08:01:28;1.30;99.90
23532;DHT22;11943;52.270;20.978;2023-02-08T08:03:53;1.20;99.90
23532;DHT22;11943;52.270;20.978;2023-02-08T08:06:19;1.30;99.90
23532;DHT22;11943;52.270;20.978;2023-02-08T08:08:45;1.30;99.90
23532;DHT22;11943;52.270;20.978;2023-02-08T08:11:12;1.40;99.90
23532;DHT22;11943;52.270;20.978;2023-02-08T08:13:38;1.40;99.90
23532;DHT22;11943;52.270;20.978;2023-02-08T08:16:03;1.40;99.90
23532;DHT22;11943;52.270;20.978;2023-02-08T08:18:29;1.40;99.90
23532;DHT22;11943;52.270;20.978;2023-02-08T08:20:55;1.50;99.90
23532;DHT22;11943;52.270;20.978;2023-02-08T08:23:21;1.60;99.90
23532;DHT22;11943;52.270;20.978;2023-02-08T08:25:47;1.50;99.90
23532;DHT22;11943;52.270;20.978;2023-02-08T08:28:13;1.50;99.90
23532;DHT22;11943;52.270;20.978;2023-02-08T08:30:41;1.60;99.90
23532;DHT22;11943;52.270;20.978;2023-02-08T08:33:06;1.50;99.90
23532;DHT22;11943;52.270;20.978;2023-02-08T08:35:32;1.50;99.90
23532;DHT22;11943;52.270;20.978;2023-02-08T08:37:57;1.50;99.90
23532;DHT22;11943;52.270;20.978;2023-02-08T08:40:23;1.60;99.90
23532;DHT22;11943;52.270;20.978;2023-02-08T08:42:48;1.70;99.90
23532;DHT22;11943;52.270;20.978;2023-02-08T08:45:14;1.70;99.90
23532;DHT22;11943;52.270;20.978;2023-02-08T08:47:40;1.60;99.90
23532;DHT22;11943;52.270;20.978;2023-02-08T08:50:06;1.60;99.90
23532;DHT22;11943;52.270;20.978;2023-02-08T08:52:31;1.60;99.90
23532;DHT22;11943;52.270;20.978;2023-02-08T08:54:57;1.50;99.90
23532;DHT22;11943;52.270;20.978;2023-02-08T08:57:22;1.60;99.90
23532;DHT22;11943;52.270;20.978;2023-02-08T08:59:48;1.70;99.90
23532;DHT22;11943;52.270;20.978;2023-02-08T09:02:13;1.80;99.90
23532;DHT22;11943;52.270;20.978;2023-02-08T09:04:39;1.90;99.90
23532;DHT22;11943;52.270;20.978;2023-02-08T09:07:08;1.90;99.90
23532;DHT22;11943;52.270;20.978;2023-02-08T09:09:33;1.90;99.90
23532;DHT22;11943;52.270;20.978;2023-02-08T09:11:59;1.90;99.90
23532;DHT22;11943;52.270;20.978;2023-02-08T09:14:25;2.00;99.90
23532;DHT22;11943;52.270;20.978;2023-02-08T09:16:51;1.90;99.90
23532;DHT22;11943;52.270;20.978;2023-02-08T09:19:17;1.80;99.90
23532;DHT22;11943;52.270;20.978;2023-02-08T09:21:42;1.60;99.90
23532;DHT22;11943;52.270;20.978;2023-02-08T09:24:08;1.70;99.90
23532;DHT22;11943;52.270;20.978;2023-02-08T09:26:34;1.70;99.90
23532;DHT22;11943;52.270;20.978;2023-02-08T09:28:59;1.80;99.90
23532;DHT22;11943;52.270;20.978;2023-02-08T09:31:26;2.00;99.90
23532;DHT22;11943;52.270;20.978;2023-02-08T09:33:53;1.90;99.90
23532;DHT22;11943;52.270;20.978;2023-02-08T09:36:19;2.00;99.90
23532;DHT22;11943;52.270;20.978;2023-02-08T09:38:45;2.00;99.90
23532;DHT22;11943;52.270;20.978;2023-02-08T09:46:14;2.00;99.90
23532;DHT22;11943;52.270;20.978;2023-02-08T09:48:41;2.30;99.90
23532;DHT22;11943;52.270;20.978;2023-02-08T09:53:36;2.10;99.90
23532;DHT22;11943;52.270;20.978;2023-02-08T09:56:05;2.20;99.90
23532;DHT22;11943;52.270;20.978;2023-02-08T09:58:34;2.50;99.90
23532;DHT22;11943;52.270;20.978;2023-02-08T10:01:01;2.50;99.90
23532;DHT22;11943;52.270;20.978;2023-02-08T10:03:35;2.50;99.90
23532;DHT22;11943;52.270;20.978;2023-02-08T10:06:02;2.60;99.90
23532;DHT22;11943;52.270;20.978;2023-02-08T10:08:29;2.50;99.90
23532;DHT22;11943;52.270;20.978;2023-02-08T10:10:58;2.40;99.90
23532;DHT22;11943;52.270;20.978;2023-02-08T10:16:03;2.40;99.90
23532;DHT22;11943;52.270;20.978;2023-02-08T10:18:35;2.30;99.90
23532;DHT22;11943;52.270;20.978;2023-02-08T10:24:26;2.50;99.90
23532;DHT22;11943;52.270;20.978;2023-02-08T10:29:10;2.50;99.90
23532;DHT22;11943;52.270;20.978;2023-02-08T10:36:49;2.20;99.90
23532;DHT22;11943;52.270;20.978;2023-02-08T10:39:15;2.20;99.90
23532;DHT22;11943;52.270;20.978;2023-02-08T10:41:41;2.20;99.90
23532;DHT22;11943;52.270;20.978;2023-02-08T10:46:42;2.40;99.90
23532;DHT22;11943;52.270;20.978;2023-02-08T10:51:36;2.50;99.90
23532;DHT22;11943;52.270;20.978;2023-02-08T10:54:01;2.20;99.90
23532;DHT22;11943;52.270;20.978;2023-02-08T10:56:43;2.20;99.90
23532;DHT22;11943;52.270;20.978;2023-02-08T10:59:14;2.20;99.90
23532;DHT22;11943;52.270;20.978;2023-02-08T11:01:41;2.10;99.90
23532;DHT22;11943;52.270;20.978;2023-02-08T11:04:10;2.30;99.90
23532;DHT22;11943;52.270;20.978;2023-02-08T11:06:37;2.50;99.90
23532;DHT22;11943;52.270;20.978;2023-02-08T11:09:03;2.50;99.90
23532;DHT22;11943;52.270;20.978;2023-02-08T11:11:38;2.60;99.90
23532;DHT22;11943;52.270;20.978;2023-02-08T11:14:50;2.50;98.20
23532;DHT22;11943;52.270;20.978;2023-02-08T11:16:50;2.50;99.20
23532;DHT22;11943;52.270;20.978;2023-02-08T11:19:27;2.60;99.90
23532;DHT22;11943;52.270;20.978;2023-02-08T11:21:54;2.30;98.60
23532;DHT22;11943;52.270;20.978;2023-02-08T11:24:31;2.30;99.40
23532;DHT22;11943;52.270;20.978;2023-02-08T11:27:16;2.30;99.80
23532;DHT22;11943;52.270;20.978;2023-02-08T11:29:43;2.20;99.90
23532;DHT22;11943;52.270;20.978;2023-02-08T11:34:40;1.90;97.80
23532;DHT22;11943;52.270;20.978;2023-02-08T11:39:49;2.00;98.30
23532;DHT22;11943;52.270;20.978;2023-02-08T11:42:26;2.00;97.30
23532;DHT22;11943;52.270;20.978;2023-02-08T11:44:52;2.10;98.70
23532;DHT22;11943;52.270;20.978;2023-02-08T11:47:22;2.10;98.30
23532;DHT22;11943;52.270;20.978;2023-02-08T11:49:53;2.20;98.70
23532;DHT22;11943;52.270;20.978;2023-02-08T11:52:26;2.00;98.10
23532;DHT22;11943;52.270;20.978;2023-02-08T11:55:11;1.90;99.80
23532;DHT22;11943;52.270;20.978;2023-02-08T11:57:37;1.90;99.90
23532;DHT22;11943;52.270;20.978;2023-02-08T12:00:16;2.00;99.90
23532;DHT22;11943;52.270;20.978;2023-02-08T12:02:43;2.10;99.90
23532;DHT22;11943;52.270;20.978;2023-02-08T12:05:14;2.10;99.40
23532;DHT22;11943;52.270;20.978;2023-02-08T12:10:15;2.20;99.90
23532;DHT22;11943;52.270;20.978;2023-02-08T12:12:52;2.30;99.90
23532;DHT22;11943;52.270;20.978;2023-02-08T12:20:37;2.40;97.10
23532;DHT22;11943;52.270;20.978;2023-02-08T12:25:34;2.20;98.50
23532;DHT22;11943;52.270;20.978;2023-02-08T12:33:26;2.40;95.80
23532;DHT22;11943;52.270;20.978;2023-02-08T12:38:30;2.40;96.80
23532;DHT22;11943;52.270;20.978;2023-02-08T12:41:22;2.30;96.50
23532;DHT22;11943;52.270;20.978;2023-02-08T12:49:51;2.50;93.50
23532;DHT22;11943;52.270;20.978;2023-02-08T12:54:25;2.50;90.90
23532;DHT22;11943;52.270;20.978;2023-02-08T12:56:53;2.50;91.40
23532;DHT22;11943;52.270;20.978;2023-02-08T13:02:28;2.60;91.30
23532;DHT22;11943;52.270;20.978;2023-02-08T13:04:53;2.70;91.40
23532;DHT22;11943;52.270;20.978;2023-02-08T13:10:35;2.60;90.70
23532;DHT22;11943;52.270;20.978;2023-02-08T13:12:35;2.60;90.20
23532;DHT22;11943;52.270;20.978;2023-02-08T13:15:13;2.50;88.70
23532;DHT22;11943;52.270;20.978;2023-02-08T13:22:53;2.20;91.00
23532;DHT22;11943;52.270;20.978;2023-02-08T13:25:26;2.40;89.80
23532;DHT22;11943;52.270;20.978;2023-02-08T13:27:53;2.30;90.10
23532;DHT22;11943;52.270;20.978;2023-02-08T13:30:19;2.30;90.60
23532;DHT22;11943;52.270;20.978;2023-02-08T13:32:45;2.20;90.90
23532;DHT22;11943;52.270;20.978;2023-02-08T13:35:13;2.20;90.20
23532;DHT22;11943;52.270;20.978;2023-02-08T13:37:40;2.10;88.70
23532;DHT22;11943;52.270;20.978;2023-02-08T13:42:38;2.20;89.70
23532;DHT22;11943;52.270;20.978;2023-02-08T13:45:07;2.40;90.30
23532;DHT22;11943;52.270;20.978;2023-02-08T13:47:38;2.50;88.70
23532;DHT22;11943;52.270;20.978;2023-02-08T13:52:50;2.70;86.00
23532;DHT22;11943;52.270;20.978;2023-02-08T14:00:32;2.50;86.90
23532;DHT22;11943;52.270;20.978;2023-02-08T14:03:02;2.50;87.20
23532;DHT22;11943;52.270;20.978;2023-02-08T14:05:33;2.60;86.90
23532;DHT22;11943;52.270;20.978;2023-02-08T14:08:00;2.30;86.40
23532;DHT22;11943;52.270;20.978;2023-02-08T14:10:29;2.30;85.80
23532;DHT22;11943;52.270;20.978;2023-02-08T14:15:45;2.40;86.90
23532;DHT22;11943;52.270;20.978;2023-02-08T14:18:20;2.30;88.50
23532;DHT22;11943;52.270;20.978;2023-02-08T14:21:00;2.30;87.70
23532;DHT22;11943;52.270;20.978;2023-02-08T14:23:27;2.20;87.40
23532;DHT22;11943;52.270;20.978;2023-02-08T14:25:55;2.20;88.60
23532;DHT22;11943;52.270;20.978;2023-02-08T14:28:23;2.20;90.00
23532;DHT22;11943;52.270;20.978;2023-02-08T14:30:50;2.20;89.80
23532;DHT22;11943;52.270;20.978;2023-02-08T14:33:17;2.20;87.80
23532;DHT22;11943;52.270;20.978;2023-02-08T14:35:55;2.20;88.40
23532;DHT22;11943;52.270;20.978;2023-02-08T14:45:44;2.40;87.30
23532;DHT22;11943;52.270;20.978;2023-02-08T14:48:15;2.30;87.30
23532;DHT22;11943;52.270;20.978;2023-02-08T14:50:57;2.20;88.00
23532;DHT22;11943;52.270;20.978;2023-02-08T14:58:39;1.70;90.50
23532;DHT22;11943;52.270;20.978;2023-02-08T15:01:07;1.60;91.00
23532;DHT22;11943;52.270;20.978;2023-02-08T15:03:37;1.50;91.10
23532;DHT22;11943;52.270;20.978;2023-02-08T15:08:48;1.50;92.00
23532;DHT22;11943;52.270;20.978;2023-02-08T15:11:23;1.50;92.20
23532;DHT22;11943;52.270;20.978;2023-02-08T15:13:50;1.40;92.10
23532;DHT22;11943;52.270;20.978;2023-02-08T15:16:17;1.40;92.90
23532;DHT22;11943;52.270;20.978;2023-02-08T15:18:44;1.30;92.70
23532;DHT22;11943;52.270;20.978;2023-02-08T15:21:17;1.30;92.60
23532;DHT22;11943;52.270;20.978;2023-02-08T15:24:03;1.20;93.90
23532;DHT22;11943;52.270;20.978;2023-02-08T15:26:32;1.10;93.80
23532;DHT22;11943;52.270;20.978;2023-02-08T15:28:57;1.10;94.40
23532;DHT22;11943;52.270;20.978;2023-02-08T15:31:31;1.00;94.50
23532;DHT22;11943;52.270;20.978;2023-02-08T15:33:57;1.00;94.60
23532;DHT22;11943;52.270;20.978;2023-02-08T15:36:31;0.90;95.20
23532;DHT22;11943;52.270;20.978;2023-02-08T15:38:58;0.90;95.70
23532;DHT22;11943;52.270;20.978;2023-02-08T15:41:32;0.90;95.80
23532;DHT22;11943;52.270;20.978;2023-02-08T15:44:22;0.80;95.60
23532;DHT22;11943;52.270;20.978;2023-02-08T15:46:46;0.70;96.20
23532;DHT22;11943;52.270;20.978;2023-02-08T15:49:13;0.70;96.60
23532;DHT22;11943;52.270;20.978;2023-02-08T15:51:39;0.60;97.90
23532;DHT22;11943;52.270;20.978;2023-02-08T15:54:05;0.60;97.90
23532;DHT22;11943;52.270;20.978;2023-02-08T15:56:33;0.60;98.50
23532;DHT22;11943;52.270;20.978;2023-02-08T15:59:00;0.60;98.50
23532;DHT22;11943;52.270;20.978;2023-02-08T16:01:26;0.60;98.30
23532;DHT22;11943;52.270;20.978;2023-02-08T16:03:55;0.60;98.90
23532;DHT22;11943;52.270;20.978;2023-02-08T16:06:28;0.50;98.90
23532;DHT22;11943;52.270;20.978;2023-02-08T16:08:57;0.50;99.60
23532;DHT22;11943;52.270;20.978;2023-02-08T16:11:25;0.40;99.50
23532;DHT22;11943;52.270;20.978;2023-02-08T16:13:51;0.40;99.90
23532;DHT22;11943;52.270;20.978;2023-02-08T16:16:22;0.40;99.90
23532;DHT22;11943;52.270;20.978;2023-02-08T16:18:54;0.40;99.90
23532;DHT22;11943;52.270;20.978;2023-02-08T16:23:50;0.30;99.90
23532;DHT22;11943;52.270;20.978;2023-02-08T16:26:20;0.30;99.90
23532;DHT22;11943;52.270;20.978;2023-02-08T16:31:19;0.30;99.90
23532;DHT22;11943;52.270;20.978;2023-02-08T16:33:46;0.30;99.90
23532;DHT22;11943;52.270;20.978;2023-02-08T16:36:20;0.30;99.90
23532;DHT22;11943;52.270;20.978;2023-02-08T16:39:03;0.20;99.90
23532;DHT22;11943;52.270;20.978;2023-02-08T16:41:56;0.20;99.90
23532;DHT22;11943;52.270;20.978;2023-02-08T16:44:26;0.20;99.90
23532;DHT22;11943;52.270;20.978;2023-02-08T16:46:53;0.20;99.90
23532;DHT22;11943;52.270;20.978;2023-02-08T16:49:18;0.20;99.90
23532;DHT22;11943;52.270;20.978;2023-02-08T16:51:44;0.20;99.90
23532;DHT22;11943;52.270;20.978;2023-02-08T16:54:11;0.10;99.90
23532;DHT22;11943;52.270;20.978;2023-02-08T16:56:38;0.70;99.90
23532;DHT22;11943;52.270;20.978;2023-02-08T16:59:04;0.10;99.90
23532;DHT22;11943;52.270;20.978;2023-02-08T17:01:30;0.00;99.90
23532;DHT22;11943;52.270;20.978;2023-02-08T17:03:56;0.30;99.90
23532;DHT22;11943;52.270;20.978;2023-02-08T17:06:31;0.00;99.90
23532;DHT22;11943;52.270;20.978;2023-02-08T17:08:57;0.00;99.90
23532;DHT22;11943;52.270;20.978;2023-02-08T17:11:23;0.00;99.90
23532;DHT22;11943;52.270;20.978;2023-02-08T17:13:49;-0.10;99.90
23532;DHT22;11943;52.270;20.978;2023-02-08T17:16:17;0.00;99.90
23532;DHT22;11943;52.270;20.978;2023-02-08T17:18:44;-0.10;99.90
23532;DHT22;11943;52.270;20.978;2023-02-08T17:21:10;0.00;99.90
23532;DHT22;11943;52.270;20.978;2023-02-08T17:23:35;0.00;99.90
23532;DHT22;11943;52.270;20.978;2023-02-08T17:26:01;0.10;99.90
23532;DHT22;11943;52.270;20.978;2023-02-08T17:28:27;0.10;99.90
23532;DHT22;11943;52.270;20.978;2023-02-08T17:30:52;0.00;99.90
23532;DHT22;11943;52.270;20.978;2023-02-08T17:33:18;0.10;99.90
23532;DHT22;11943;52.270;20.978;2023-02-08T17:35:48;0.00;99.90
23532;DHT22;11943;52.270;20.978;2023-02-08T17:38:13;0.00;99.90
23532;DHT22;11943;52.270;20.978;2023-02-08T17:40:40;0.00;99.90
23532;DHT22;11943;52.270;20.978;2023-02-08T17:43:05;0.10;99.90
23532;DHT22;11943;52.270;20.978;2023-02-08T17:45:34;0.00;99.90
23532;DHT22;11943;52.270;20.978;2023-02-08T17:48:00;0.00;99.90
23532;DHT22;11943;52.270;20.978;2023-02-08T17:50:26;0.00;99.90
23532;DHT22;11943;52.270;20.978;2023-02-08T17:52:52;0.00;99.90
23532;DHT22;11943;52.270;20.978;2023-02-08T17:55:18;0.00;99.90
23532;DHT22;11943;52.270;20.978;2023-02-08T17:57:43;-0.10;99.90
23532;DHT22;11943;52.270;20.978;2023-02-08T18:00:10;-0.10;99.90
23532;DHT22;11943;52.270;20.978;2023-02-08T18:02:37;-0.10;99.90